Flood From: 22-02-2018 16:00 Until: 23-02-2018 16:00 warning for: Flood Level: Yellow info button

Although rather usual in this region, locally or potentially dangerous phenomena are expected. (such as local winds, summer thunderstorms, rising streams or high waves) Be aware and pay attention to the latest weather updates, especially if you carry out activities exposed to weather or close to a stream or shoreline. 


Meteo18 Weather Cam more information Meteo18 Weather Cam


Thunder radar more information blitzortung!


Rain radar more information rain snow radar


Visit our other weather sites:

Template documentation
and downloads

And another site



Weather Underground History page Text

Daily Summary for July 14, 2017 Units:  English    Metric   Both
« Previous Day
Next Day »
Daily Weekly Monthly Yearly Custom
  High: Low: Average:
Temperature: TemperatureC °F 14.4 °F 19.5 °F
Dew Point: DewpointC °F 9.8 °F 12.6 °F
Humidity: Humidity % 45 % 66 %
Wind Speed: WindSpeedKMH mph 0.0 mph 5.2 mph
Wind Gust: WindSpeedGustKMH mph - -
Wind:- - West
Pressure: PressurehPa in 1020.2 in -
Precipitation: 0.0 in    
Historical Graphs
 
 
Tabular Data for July 14, 2017
Time Temperature Dew Point Pressure Wind Wind Speed Wind Gust Humidity Rainfall Rate (Hourly)
TemperatureC °F DewpointC °F PressurehPa in Calm     Humidity % HourlyPrecipMM in
00:02 20.2 °F 15.6 °F 1020.2 in Calm   8.0 mph 75 % 0.0 in
00:07 20.1 °F 15.5 °F 1020.2 in West 1.6 mph 8.0 mph 75 % 0.0 in
00:12 20.1 °F 15.7 °F 1020.2 in WSW 3.2 mph 6.4 mph 76 % 0.0 in
00:17 19.9 °F 15.5 °F 1020.2 in WSW 3.2 mph 6.4 mph 76 % 0.0 in
00:22 19.9 °F 15.7 °F 1020.5 in Calm   6.4 mph 77 % 0.0 in
00:32 19.8 °F 15.4 °F 1020.2 in West 6.4 mph 6.4 mph 76 % 0.0 in
00:37 19.9 °F 15.3 °F 1020.5 in WSW 9.7 mph 9.7 mph 75 % 0.0 in
00:42 19.9 °F 15.3 °F 1020.5 in WSW 3.2 mph 9.7 mph 75 % 0.0 in
00:52 19.9 °F 15.3 °F 1020.5 in West 9.7 mph 11.3 mph 75 % 0.0 in
00:57 19.8 °F 15.2 °F 1020.5 in SW 3.2 mph 12.9 mph 75 % 0.0 in
01:02 19.8 °F 15.2 °F 1020.5 in WNW 1.6 mph 12.9 mph 75 % 0.0 in
01:12 19.7 °F 15.1 °F 1020.5 in West 11.3 mph 12.9 mph 75 % 0.0 in
01:17 19.7 °F 15.1 °F 1020.2 in SW 6.4 mph 12.9 mph 75 % 0.0 in
01:22 19.6 °F 15.0 °F 1020.2 in WSW 8.0 mph 12.9 mph 75 % 0.0 in
01:32 19.3 °F 15.0 °F 1020.5 in WSW 6.4 mph 12.9 mph 76 % 0.0 in
01:37 19.1 °F 15.0 °F 1020.5 in WSW 8.0 mph 12.9 mph 77 % 0.0 in
01:42 19.1 °F 15.0 °F 1020.2 in WNW 9.7 mph 11.3 mph 77 % 0.0 in
01:52 18.8 °F 14.9 °F 1020.5 in WSW 9.7 mph 12.9 mph 78 % 0.0 in
02:02 18.6 °F 14.9 °F 1020.5 in West 6.4 mph 11.3 mph 79 % 0.0 in
02:12 18.3 °F 14.8 °F 1020.5 in SSW 3.2 mph 12.9 mph 80 % 0.0 in
02:22 18.1 °F 14.6 °F 1020.5 in Calm   12.9 mph 80 % 0.0 in
02:32 17.8 °F 14.5 °F 1020.5 in Calm   9.7 mph 81 % 0.0 in
02:37 17.6 °F 14.5 °F 1020.5 in SSW 1.6 mph 8.0 mph 82 % 0.0 in
02:42 17.3 °F 14.4 °F 1020.2 in Calm   4.8 mph 83 % 0.0 in
02:47 16.9 °F 14.0 °F 1020.2 in SE 3.2 mph 4.8 mph 83 % 0.0 in
02:52 16.6 °F 14.1 °F 1020.2 in SSE 1.6 mph 4.8 mph 85 % 0.0 in
02:57 16.4 °F 13.9 °F 1020.2 in East 3.2 mph 4.8 mph 85 % 0.0 in
03:02 16.3 °F 14.0 °F 1020.2 in Calm   8.0 mph 86 % 0.0 in
03:12 16.2 °F 14.0 °F 1020.2 in Calm   8.0 mph 87 % 0.0 in
03:17 16.1 °F 13.9 °F 1020.2 in Calm   4.8 mph 87 % 0.0 in
03:22 16.1 °F 13.9 °F 1020.5 in SE 1.6 mph 4.8 mph 87 % 0.0 in
03:32 15.9 °F 13.9 °F 1020.2 in Calm   3.2 mph 88 % 0.0 in
03:37 15.9 °F 13.9 °F 1020.2 in Calm   3.2 mph 88 % 0.0 in
03:42 15.9 °F 14.1 °F 1020.2 in South 3.2 mph 3.2 mph 89 % 0.0 in
03:47 15.8 °F 14.0 °F 1020.2 in Calm   4.8 mph 89 % 0.0 in
03:52 15.8 °F 14.0 °F 1020.2 in Calm   4.8 mph 89 % 0.0 in
03:57 15.7 °F 13.9 °F 1020.5 in Calm   4.8 mph 89 % 0.0 in
04:02 15.6 °F 13.8 °F 1020.5 in Calm   3.2 mph 89 % 0.0 in
04:12 15.5 °F 13.9 °F 1020.5 in Calm   1.6 mph 90 % 0.0 in
04:22 15.5 °F 14.0 °F 1020.5 in SW 1.6 mph 1.6 mph 91 % 0.0 in
04:32 15.3 °F 13.7 °F 1020.2 in Calm   1.6 mph 90 % 0.0 in
04:42 15.1 °F 13.6 °F 1020.2 in Calm   1.6 mph 91 % 0.0 in
04:47 15.1 °F 13.8 °F 1020.5 in Calm     92 % 0.0 in
04:52 15.1 °F 13.8 °F 1020.2 in Calm     92 % 0.0 in
05:02 15.2 °F 13.7 °F 1020.5 in Calm     91 % 0.0 in
05:12 15.1 °F 13.8 °F 1020.5 in SSW 1.6 mph   92 % 0.0 in
05:17 14.9 °F 13.4 °F 1020.5 in SW 1.6 mph 4.8 mph 91 % 0.0 in
05:22 14.7 °F 13.4 °F 1020.5 in Calm   6.4 mph 92 % 0.0 in
05:27 14.8 °F 13.5 °F 1020.5 in Calm   6.4 mph 92 % 0.0 in
05:32 14.7 °F 13.4 °F 1020.5 in West 1.6 mph 6.4 mph 92 % 0.0 in
05:42 14.8 °F 13.7 °F 1020.5 in Calm   4.8 mph 93 % 0.0 in
05:52 14.9 °F 13.6 °F 1020.9 in WNW 1.6 mph 4.8 mph 92 % 0.0 in
05:57 14.9 °F 13.6 °F 1020.9 in Calm   4.8 mph 92 % 0.0 in
06:02 14.9 °F 13.6 °F 1020.9 in Calm   4.8 mph 92 % 0.0 in
06:12 14.7 °F 13.4 °F 1020.9 in Calm   4.8 mph 92 % 0.0 in
06:17 14.6 °F 13.3 °F 1020.9 in Calm   3.2 mph 92 % 0.0 in
06:22 14.4 °F 13.1 °F 1020.9 in Calm   1.6 mph 92 % 0.0 in
06:32 14.4 °F 13.3 °F 1021.2 in Calm   3.2 mph 93 % 0.0 in
06:37 14.6 °F 13.6 °F 1021.2 in WNW 3.2 mph 3.2 mph 94 % 0.0 in
06:42 14.7 °F 13.6 °F 1021.2 in Calm   3.2 mph 93 % 0.0 in
06:47 14.9 °F 13.8 °F 1021.2 in Calm   3.2 mph 93 % 0.0 in
06:52 15.0 °F 13.9 °F 1021.2 in Calm   3.2 mph 93 % 0.0 in
06:57 15.0 °F 13.7 °F 1021.2 in Calm   3.2 mph 92 % 0.0 in
07:02 14.8 °F 13.5 °F 1021.2 in WNW 1.6 mph 3.2 mph 92 % 0.0 in
07:07 15.0 °F 13.9 °F 1021.2 in Calm   3.2 mph 93 % 0.0 in
07:12 15.2 °F 13.9 °F 1021.2 in Calm   6.4 mph 92 % 0.0 in
07:17 15.4 °F 14.1 °F 1021.6 in Calm   6.4 mph 92 % 0.0 in
07:22 15.6 °F 14.1 °F 1021.6 in Calm   8.0 mph 91 % 0.0 in
07:27 15.6 °F 14.1 °F 1021.6 in NW 6.4 mph 8.0 mph 91 % 0.0 in
07:32 15.6 °F 14.0 °F 1021.6 in WSW 3.2 mph 8.0 mph 90 % 0.0 in
07:37 15.7 °F 14.1 °F 1021.6 in WNW 3.2 mph 8.0 mph 90 % 0.0 in
07:42 15.8 °F 14.2 °F 1021.6 in West 4.8 mph 8.0 mph 90 % 0.0 in
07:47 15.9 °F 14.1 °F 1021.6 in NW 3.2 mph 8.0 mph 89 % 0.0 in
07:52 16.1 °F 14.1 °F 1021.6 in NW 3.2 mph 8.0 mph 88 % 0.0 in
07:57 16.2 °F 14.0 °F 1021.6 in WNW 6.4 mph 8.0 mph 87 % 0.0 in
08:02 16.4 °F 14.2 °F 1021.6 in NW 6.4 mph 8.0 mph 87 % 0.0 in
08:07 16.4 °F 14.1 °F 1021.9 in NW 8.0 mph 14.5 mph 86 % 0.0 in
08:12 16.5 °F 13.8 °F 1021.9 in WNW 4.8 mph 14.5 mph 84 % 0.0 in
08:17 16.5 °F 13.8 °F 1021.9 in NW 6.4 mph 14.5 mph 84 % 0.0 in
08:22 16.6 °F 13.7 °F 1021.9 in NW 3.2 mph 12.9 mph 83 % 0.0 in
08:27 16.8 °F 13.7 °F 1021.9 in Calm   12.9 mph 82 % 0.0 in
08:32 16.8 °F 13.5 °F 1021.9 in NNW 1.6 mph 9.7 mph 81 % 0.0 in
08:37 16.9 °F 13.6 °F 1021.9 in WNW 4.8 mph 9.7 mph 81 % 0.0 in
08:42 16.9 °F 13.6 °F 1021.9 in NW 1.6 mph 9.7 mph 81 % 0.0 in
08:47 17.1 °F 13.8 °F 1021.9 in NW 6.4 mph 14.5 mph 81 % 0.0 in
08:52 17.4 °F 13.7 °F 1021.9 in Calm   14.5 mph 79 % 0.0 in
09:02 17.9 °F 13.6 °F 1021.9 in NW 1.6 mph 9.7 mph 76 % 0.0 in
09:12 18.5 °F 13.6 °F 1021.9 in WNW 6.4 mph 11.3 mph 73 % 0.0 in
09:17 18.7 °F 13.8 °F 1021.9 in WNW 1.6 mph 16.1 mph 73 % 0.0 in
09:22 18.7 °F 13.8 °F 1021.9 in NNW 1.6 mph 16.1 mph 73 % 0.0 in
09:27 18.7 °F 13.3 °F 1021.9 in WNW 12.9 mph 12.9 mph 71 % 0.0 in
09:32 18.6 °F 13.2 °F 1022.2 in West 8.0 mph 17.7 mph 71 % 0.0 in
09:37 18.7 °F 12.9 °F 1022.2 in WNW 8.0 mph 17.7 mph 69 % 0.0 in
09:42 18.6 °F 11.9 °F 1022.2 in WNW 11.3 mph 17.7 mph 65 % 0.0 in
09:47 18.4 °F 11.5 °F 1022.2 in WNW 8.0 mph 14.5 mph 64 % 0.0 in
09:52 18.4 °F 11.5 °F 1021.9 in WNW 4.8 mph 14.5 mph 64 % 0.0 in
09:57 18.6 °F 10.7 °F 1021.9 in NNW 6.4 mph 14.5 mph 60 % 0.0 in
10:02 18.9 °F 11.2 °F 1021.9 in WSW 3.2 mph 14.5 mph 61 % 0.0 in
10:12 19.2 °F 10.2 °F 1022.2 in WNW 3.2 mph 14.5 mph 56 % 0.0 in
10:17 19.6 °F 9.8 °F 1022.2 in West 8.0 mph 16.1 mph 53 % 0.0 in
10:22 19.6 °F 9.8 °F 1022.2 in WSW 4.8 mph 16.1 mph 53 % 0.0 in
10:32 20.1 °F 10.5 °F 1022.2 in West 4.8 mph 14.5 mph 54 % 0.0 in
10:37 20.1 °F 10.2 °F 1022.2 in West 4.8 mph 11.3 mph 53 % 0.0 in
10:42 20.2 °F 10.9 °F 1022.2 in NNW 4.8 mph 14.5 mph 55 % 0.0 in
10:52 20.8 °F 10.6 °F 1022.2 in West 3.2 mph 14.5 mph 52 % 0.0 in
10:57 21.1 °F 10.9 °F 1022.2 in NW 11.3 mph 14.5 mph 52 % 0.0 in
11:02 21.0 °F 10.5 °F 1022.2 in North 8.0 mph 14.5 mph 51 % 0.0 in
11:12 20.8 °F 10.6 °F 1022.2 in NNE 4.8 mph 14.5 mph 52 % 0.0 in
11:17 20.9 °F 10.7 °F 1022.2 in NNW 4.8 mph 17.7 mph 52 % 0.0 in
11:22 20.7 °F 10.5 °F 1022.2 in NNW 4.8 mph 17.7 mph 52 % 0.0 in
11:32 20.9 °F 11.2 °F 1022.2 in WNW 6.4 mph 17.7 mph 54 % 0.0 in
11:42 21.0 °F 10.8 °F 1022.2 in WNW 4.8 mph 19.3 mph 52 % 0.0 in
11:52 21.0 °F 10.8 °F 1022.6 in NNW 9.7 mph 19.3 mph 52 % 0.0 in
12:02 20.6 °F 11.0 °F 1022.6 in West 8.0 mph 25.7 mph 54 % 0.0 in
12:12 21.2 °F 11.2 °F 1022.6 in WSW 6.4 mph 22.5 mph 53 % 0.0 in
12:17 21.4 °F 11.4 °F 1022.6 in WNW 9.7 mph 19.3 mph 53 % 0.0 in
12:22 21.4 °F 11.4 °F 1022.6 in WNW 16.1 mph 20.9 mph 53 % 0.0 in
12:32 21.3 °F 11.3 °F 1022.2 in West 19.3 mph 29.0 mph 53 % 0.0 in
12:42 21.2 °F 11.2 °F 1022.2 in WNW 19.3 mph 24.1 mph 53 % 0.0 in
12:47 21.1 °F 10.9 °F 1022.2 in WNW 9.7 mph 24.1 mph 52 % 0.0 in
12:52 21.2 °F 10.7 °F 1022.2 in NW 4.8 mph 25.7 mph 51 % 0.0 in
12:57 21.3 °F 11.3 °F 1022.2 in NW 6.4 mph 25.7 mph 53 % 0.0 in
13:02 21.8 °F 11.8 °F 1022.2 in WSW 11.3 mph 19.3 mph 53 % 0.0 in
13:12 21.8 °F 10.9 °F 1022.6 in West 8.0 mph 25.7 mph 50 % 0.0 in
13:17 21.8 °F 11.2 °F 1022.2 in Calm   25.7 mph 51 % 0.0 in
13:22 22.0 °F 10.5 °F 1022.2 in NW 16.1 mph 22.5 mph 48 % 0.0 in
13:27 22.0 °F 10.5 °F 1022.2 in West 3.2 mph 22.5 mph 48 % 0.0 in
13:37 22.1 °F 11.5 °F 1022.2 in NW 3.2 mph 22.5 mph 51 % 0.0 in
13:42 22.5 °F 11.6 °F 1022.2 in WNW 11.3 mph 20.9 mph 50 % 0.0 in
13:47 22.4 °F 11.5 °F 1022.2 in WNW 3.2 mph 20.9 mph 50 % 0.0 in
13:52 22.5 °F 10.9 °F 1022.2 in WNW 16.1 mph 20.9 mph 48 % 0.0 in
13:57 22.3 °F 11.1 °F 1022.2 in SW 1.6 mph 20.9 mph 49 % 0.0 in
14:02 22.7 °F 10.8 °F 1022.2 in WSW 6.4 mph 22.5 mph 47 % 0.0 in
14:12 22.6 °F 11.3 °F 1022.2 in West 6.4 mph 24.1 mph 49 % 0.0 in
14:17 22.4 °F 10.8 °F 1021.9 in NNW 9.7 mph 20.9 mph 48 % 0.0 in
14:22 22.4 °F 11.2 °F 1022.2 in NNW 4.8 mph 20.9 mph 49 % 0.0 in
14:32 22.8 °F 10.9 °F 1022.2 in WNW 6.4 mph 22.5 mph 47 % 0.0 in
14:37 22.7 °F 11.1 °F 1021.9 in WNW 3.2 mph 22.5 mph 48 % 0.0 in
14:42 23.0 °F 11.1 °F 1021.9 in West 6.4 mph 22.5 mph 47 % 0.0 in
14:47 22.9 °F 11.3 °F 1021.9 in West 11.3 mph 24.1 mph 48 % 0.0 in
14:52 23.0 °F 11.1 °F 1021.9 in WNW 14.5 mph 24.1 mph 47 % 0.0 in
14:57 23.0 °F 11.1 °F 1021.6 in North 8.0 mph 24.1 mph 47 % 0.0 in
15:02 23.1 °F 11.8 °F 1021.6 in West 11.3 mph 17.7 mph 49 % 0.0 in
15:07 23.3 °F 11.7 °F 1021.6 in WNW 11.3 mph 22.5 mph 48 % 0.0 in
15:12 23.1 °F 11.2 °F 1021.6 in WSW 6.4 mph 22.5 mph 47 % 0.0 in
15:17 23.2 °F 11.6 °F 1021.6 in WNW 12.9 mph 22.5 mph 48 % 0.0 in
15:22 23.2 °F 10.9 °F 1021.9 in West 11.3 mph 19.3 mph 46 % 0.0 in
15:27 23.1 °F 10.8 °F 1021.9 in West 12.9 mph 22.5 mph 46 % 0.0 in
15:32 23.3 °F 11.0 °F 1021.9 in West 9.7 mph 22.5 mph 46 % 0.0 in
15:37 23.2 °F 10.9 °F 1021.9 in NW 9.7 mph 22.5 mph 46 % 0.0 in
15:42 23.2 °F 10.9 °F 1021.9 in WNW 4.8 mph 20.9 mph 46 % 0.0 in
15:47 23.1 °F 10.8 °F 1021.9 in WSW 8.0 mph 19.3 mph 46 % 0.0 in
15:52 23.2 °F 10.9 °F 1021.9 in WNW 8.0 mph 19.3 mph 46 % 0.0 in
16:02 23.3 °F 11.7 °F 1021.9 in WSW 9.7 mph 19.3 mph 48 % 0.0 in
16:12 23.3 °F 10.7 °F 1021.9 in West 14.5 mph 22.5 mph 45 % 0.0 in
16:17 23.6 °F 11.6 °F 1021.9 in Calm   22.5 mph 47 % 0.0 in
16:27 23.6 °F 11.3 °F 1021.9 in WNW 9.7 mph 22.5 mph 46 % 0.0 in
16:32 23.3 °F 11.7 °F 1021.9 in NW 11.3 mph 22.5 mph 48 % 0.0 in
16:37 22.9 °F 11.0 °F 1021.6 in WNW 8.0 mph 22.5 mph 47 % 0.0 in
16:42 23.4 °F 11.4 °F 1021.6 in NW 8.0 mph 17.7 mph 47 % 0.0 in
16:52 23.4 °F 10.8 °F 1021.6 in WNW 14.5 mph 17.7 mph 45 % 0.0 in
16:57 23.8 °F 11.2 °F 1021.6 in WNW 11.3 mph 17.7 mph 45 % 0.0 in
17:02 23.6 °F 11.0 °F 1021.6 in SSW 6.4 mph 22.5 mph 45 % 0.0 in
17:07 23.7 °F 11.1 °F 1021.6 in West 4.8 mph 22.5 mph 45 % 0.0 in
17:12 23.4 °F 10.8 °F 1021.6 in West 11.3 mph 25.7 mph 45 % 0.0 in
17:17 23.3 °F 11.0 °F 1021.6 in WNW 9.7 mph 25.7 mph 46 % 0.0 in
17:22 23.2 °F 11.3 °F 1021.6 in NW 6.4 mph 25.7 mph 47 % 0.0 in
17:32 24.2 °F 11.8 °F 1021.6 in SW 8.0 mph 20.9 mph 46 % 0.0 in
17:42 23.7 °F 11.1 °F 1021.6 in WNW 12.9 mph 19.3 mph 45 % 0.0 in
17:57 23.9 °F 11.6 °F 1021.6 in West 4.8 mph 24.1 mph 46 % 0.0 in
18:02 24.0 °F 11.3 °F 1021.6 in WSW 14.5 mph 22.5 mph 45 % 0.0 in
18:12 23.6 °F 11.3 °F 1021.6 in WNW 4.8 mph 24.1 mph 46 % 0.0 in
18:17 23.8 °F 11.5 °F 1021.6 in WNW 11.3 mph 24.1 mph 46 % 0.0 in
18:22 23.8 °F 11.5 °F 1021.6 in West 1.6 mph 24.1 mph 46 % 0.0 in
18:32 23.8 °F 11.8 °F 1021.6 in West 11.3 mph 22.5 mph 47 % 0.0 in
18:42 24.0 °F 12.0 °F 1021.6 in North 3.2 mph 22.5 mph 47 % 0.0 in
18:52 24.2 °F 12.2 °F 1021.6 in West 9.7 mph 14.5 mph 47 % 0.0 in
18:57 23.9 °F 11.6 °F 1021.6 in WNW 14.5 mph 17.7 mph 46 % 0.0 in
19:02 23.3 °F 11.7 °F 1021.6 in WNW 6.4 mph 17.7 mph 48 % 0.0 in
19:12 23.4 °F 11.8 °F 1021.6 in WNW 4.8 mph 17.7 mph 48 % 0.0 in
19:22 22.8 °F 11.8 °F 1021.6 in West 4.8 mph 16.1 mph 50 % 0.0 in
19:27 23.1 °F 12.1 °F 1021.6 in Calm   16.1 mph 50 % 0.0 in
19:32 23.3 °F 12.0 °F 1021.6 in NW 8.0 mph 16.1 mph 49 % 0.0 in
19:37 23.3 °F 12.0 °F 1021.6 in WNW 4.8 mph 14.5 mph 49 % 0.0 in
19:42 23.4 °F 12.1 °F 1021.6 in NNW 4.8 mph 14.5 mph 49 % 0.0 in
19:47 23.7 °F 12.0 °F 1021.6 in West 3.2 mph 12.9 mph 48 % 0.0 in
19:57 23.6 °F 12.3 °F 1021.6 in West 17.7 mph 17.7 mph 49 % 0.0 in
20:02 23.4 °F 12.1 °F 1021.6 in WNW 9.7 mph 17.7 mph 49 % 0.0 in
20:12 23.1 °F 12.1 °F 1021.6 in WNW 9.7 mph 17.7 mph 50 % 0.0 in
20:17 22.8 °F 12.1 °F 1021.9 in WNW 6.4 mph 19.3 mph 51 % 0.0 in
20:22 22.6 °F 12.2 °F 1021.6 in WSW 6.4 mph 19.3 mph 52 % 0.0 in
20:27 22.4 °F 12.3 °F 1021.6 in WNW 6.4 mph 19.3 mph 53 % 0.0 in
20:32 22.4 °F 12.3 °F 1021.9 in WNW 4.8 mph 11.3 mph 53 % 0.0 in
20:42 22.6 °F 12.5 °F 1021.9 in NW 4.8 mph 11.3 mph 53 % 0.0 in
20:47 22.4 °F 12.6 °F 1021.9 in NW 3.2 mph 11.3 mph 54 % 0.0 in
20:52 22.0 °F 12.5 °F 1021.9 in WNW 6.4 mph 8.0 mph 55 % 0.0 in
20:57 21.7 °F 12.5 °F 1021.9 in WNW 4.8 mph 9.7 mph 56 % 0.0 in
21:02 21.5 °F 12.6 °F 1021.9 in NW 1.6 mph 11.3 mph 57 % 0.0 in
21:07 21.3 °F 12.7 °F 1021.9 in WNW 4.8 mph 11.3 mph 58 % 0.0 in
21:12 21.2 °F 12.6 °F 1021.9 in WNW 3.2 mph 11.3 mph 58 % 0.0 in
21:17 21.1 °F 12.8 °F 1021.9 in WNW 3.2 mph 6.4 mph 59 % 0.0 in
21:22 20.9 °F 12.6 °F 1021.9 in WNW 3.2 mph 8.0 mph 59 % 0.0 in
21:32 20.6 °F 12.6 °F 1021.9 in WNW 6.4 mph 9.7 mph 60 % 0.0 in
21:42 20.3 °F 12.5 °F 1022.2 in WNW 4.8 mph 9.7 mph 61 % 0.0 in
21:47 20.2 °F 12.7 °F 1022.2 in WNW 4.8 mph 9.7 mph 62 % 0.0 in
21:52 20.1 °F 12.6 °F 1022.2 in WNW 3.2 mph 8.0 mph 62 % 0.0 in
21:57 19.9 °F 12.6 °F 1022.2 in WNW 3.2 mph 8.0 mph 63 % 0.0 in
22:02 19.8 °F 12.6 °F 1022.2 in WNW 1.6 mph 8.0 mph 63 % 0.0 in
22:12 19.6 °F 12.6 °F 1022.2 in West 3.2 mph 4.8 mph 64 % 0.0 in
22:17 19.4 °F 12.4 °F 1022.2 in WNW 4.8 mph 4.8 mph 64 % 0.0 in
22:22 19.3 °F 12.6 °F 1022.6 in WNW 4.8 mph 6.4 mph 65 % 0.0 in
22:27 19.0 °F 12.5 °F 1022.6 in WNW 4.8 mph 6.4 mph 66 % 0.0 in
22:32 18.8 °F 12.5 °F 1022.6 in WNW 4.8 mph 4.8 mph 67 % 0.0 in
22:37 18.7 °F 12.7 °F 1022.6 in WNW 4.8 mph 6.4 mph 68 % 0.0 in
22:42 18.6 °F 12.6 °F 1022.6 in WNW 4.8 mph 6.4 mph 68 % 0.0 in
22:47 18.4 °F 12.6 °F 1022.6 in WNW 4.8 mph 6.4 mph 69 % 0.0 in
22:52 18.3 °F 12.5 °F 1022.6 in West 4.8 mph 6.4 mph 69 % 0.0 in
22:57 18.3 °F 12.5 °F 1022.6 in WNW 4.8 mph 6.4 mph 69 % 0.0 in
23:02 18.3 °F 12.5 °F 1022.6 in WNW 4.8 mph 6.4 mph 69 % 0.0 in
23:12 18.1 °F 12.5 °F 1022.6 in Calm   6.4 mph 70 % 0.0 in
23:17 17.9 °F 12.4 °F 1022.9 in WNW 3.2 mph 4.8 mph 70 % 0.0 in
23:22 17.8 °F 12.5 °F 1022.9 in Calm   4.8 mph 71 % 0.0 in
23:32 17.8 °F 12.5 °F 1022.9 in WNW 1.6 mph 4.8 mph 71 % 0.0 in
23:42 17.6 °F 12.3 °F 1022.9 in WNW 3.2 mph 4.8 mph 71 % 0.0 in
23:47 17.4 °F 12.3 °F 1022.9 in WNW 4.8 mph 6.4 mph 72 % 0.0 in
23:52 17.3 °F 12.2 °F 1022.9 in Calm   6.4 mph 72 % 0.0 in
23:57 17.3 °F 12.2 °F 1023.2 in WNW 3.2 mph 6.4 mph 72 % 0.0 in
Meteo18
Compliments of Weather Underground - 4 mb

Script developed by  Jim McMurry - jmcmurry@mwt.net Adapted for the template by  Wim van der Kuil - Leuven-Template.eu

You find our weather info also at:

European Weather Network

Weather Underground

Equipment we use:

Weather-station
Davis Vue

Weather-program
Meteobridge

Weather-server
Raspberry PI 2 B+

Provider
1 and 1

Davis Vue

Meteobridge

Raspberry PI 2 B+

1 and 1